createdAt,value
2018-06-28T00:00:24.316Z,86.1
2018-06-28T00:01:26.572Z,86.7
2018-06-28T00:02:28.304Z,86.0
2018-06-28T00:03:29.929Z,86.2
2018-06-28T00:04:32.063Z,86.4
2018-06-28T00:05:34.308Z,86.5
2018-06-28T00:06:36.006Z,86.4
2018-06-28T00:07:37.722Z,86.2
2018-06-28T00:08:40.447Z,86.4
2018-06-28T00:09:42.197Z,86.6
2018-06-28T00:10:43.972Z,85.9
2018-06-28T00:11:45.655Z,85.8
2018-06-28T00:12:47.797Z,85.6
2018-06-28T00:13:49.952Z,85.7
2018-06-28T00:14:51.655Z,85.7
2018-06-28T00:15:53.398Z,85.7
2018-06-28T00:16:55.128Z,86.4
2018-06-28T00:17:56.883Z,86.0
2018-06-28T00:18:58.631Z,86.3
2018-06-28T00:20:00.768Z,86.2
2018-06-28T00:21:02.551Z,86.6
2018-06-28T00:22:04.911Z,85.9
2018-06-28T00:23:06.601Z,85.8
2018-06-28T00:24:08.347Z,86.3
2018-06-28T00:25:10.465Z,86.0
2018-06-28T00:26:12.765Z,86.7
2018-06-28T00:27:14.501Z,86.8
2018-06-28T00:28:16.279Z,86.7
2018-06-28T00:29:18.090Z,86.7
2018-06-28T00:30:20.353Z,86.6
2018-06-28T00:31:22.123Z,86.8
2018-06-28T00:32:23.874Z,87.0
2018-06-28T00:33:26.040Z,87.6
2018-06-28T00:34:28.433Z,87.4
2018-06-28T00:35:30.161Z,87.3
2018-06-28T00:36:32.396Z,87.6
2018-06-28T00:37:34.191Z,87.4
2018-06-28T00:38:35.868Z,87.2
2018-06-28T00:39:37.645Z,87.3
2018-06-28T00:40:39.584Z,87.7
2018-06-28T00:41:41.860Z,87.0
2018-06-28T00:42:44.038Z,87.1
2018-06-28T00:43:45.728Z,87.2
2018-06-28T00:44:47.878Z,87.2
2018-06-28T00:45:49.669Z,87.6
2018-06-28T00:46:51.451Z,87.6
2018-06-28T00:47:53.194Z,88.0
2018-06-28T00:48:54.973Z,87.8
2018-06-28T00:49:56.672Z,88.4
2018-06-28T00:50:58.528Z,89.1
2018-06-28T00:52:00.255Z,88.5
2018-06-28T00:53:02.407Z,88.6
2018-06-28T00:54:04.646Z,88.4
2018-06-28T00:55:06.240Z,88.9
2018-06-28T00:56:08.393Z,89.4
2018-06-28T00:57:10.042Z,89.0
2018-06-28T00:58:11.797Z,88.7
2018-06-28T00:59:13.547Z,88.6
2018-06-28T01:00:15.804Z,88.7
2018-06-28T01:01:17.551Z,88.6
2018-06-28T01:02:19.779Z,88.5
2018-06-28T01:03:21.389Z,88.6
2018-06-28T01:04:23.114Z,88.2
2018-06-28T01:05:25.267Z,88.7
2018-06-28T01:06:27.419Z,88.3
2018-06-28T01:07:29.051Z,88.3
2018-06-28T01:08:30.722Z,88.5
2018-06-28T01:09:32.384Z,88.1
2018-06-28T01:10:34.175Z,88.3
2018-06-28T01:11:36.386Z,87.6
2018-06-28T01:12:38.117Z,88.0
2018-06-28T01:13:39.759Z,87.3
2018-06-28T01:14:41.934Z,87.9
2018-06-28T01:15:43.642Z,88.2
2018-06-28T01:16:45.391Z,87.8
2018-06-28T01:17:47.618Z,87.9
2018-06-28T01:18:49.289Z,88.3
2018-06-28T01:19:51.668Z,88.5
2018-06-28T01:20:53.331Z,88.2
2018-06-28T01:21:55.095Z,88.4
2018-06-28T01:22:56.831Z,88.7
2018-06-28T01:23:58.662Z,88.4
2018-06-28T01:25:00.924Z,88.4
2018-06-28T01:26:02.645Z,88.1
2018-06-28T01:27:04.486Z,88.1
2018-06-28T01:28:06.170Z,87.4
2018-06-28T01:29:08.422Z,87.3
2018-06-28T01:30:10.552Z,87.8
2018-06-28T01:31:12.311Z,87.2
2018-06-28T01:32:13.937Z,88.2
2018-06-28T01:33:16.267Z,88.2
2018-06-28T01:34:17.978Z,88.7
2018-06-28T01:35:19.705Z,89.0
2018-06-28T01:36:21.815Z,89.4
2018-06-28T01:37:23.498Z,89.3
2018-06-28T01:38:25.158Z,90.0
2018-06-28T01:39:27.828Z,89.8
2018-06-28T01:40:29.490Z,90.1
2018-06-28T01:41:31.227Z,89.9
2018-06-28T01:42:32.965Z,89.8
2018-06-28T01:43:34.703Z,90.2
2018-06-28T01:44:36.358Z,90.2
2018-06-28T01:45:38.058Z,90.1
2018-06-28T01:46:39.814Z,89.8
2018-06-28T01:47:42.041Z,90.0
2018-06-28T01:48:43.828Z,90.0
2018-06-28T01:49:45.508Z,89.9
2018-06-28T01:50:47.188Z,89.6
2018-06-28T01:51:48.894Z,89.8
2018-06-28T01:52:50.590Z,89.6
2018-06-28T01:53:52.264Z,90.0
2018-06-28T01:54:54.294Z,90.5
2018-06-28T01:55:56.419Z,90.5
2018-06-28T01:56:58.579Z,90.4
2018-06-28T01:58:00.273Z,90.5
2018-06-28T01:59:01.982Z,90.5
2018-06-28T02:00:03.702Z,90.8
2018-06-28T02:01:05.345Z,90.8
2018-06-28T02:02:07.518Z,90.7
2018-06-28T02:03:09.780Z,90.5
2018-06-28T02:04:11.958Z,90.7
2018-06-28T02:05:14.142Z,90.2
2018-06-28T02:06:15.848Z,90.6
2018-06-28T02:07:17.626Z,90.7
2018-06-28T02:08:19.405Z,90.2
2018-06-28T02:09:21.118Z,90.9
2018-06-28T02:10:22.895Z,90.9
2018-06-28T02:11:24.630Z,91.1
2018-06-28T02:12:26.312Z,90.8
2018-06-28T02:13:28.528Z,91.2
2018-06-28T02:14:30.127Z,90.4
2018-06-28T02:15:31.875Z,91.1
2018-06-28T02:16:34.120Z,90.8
2018-06-28T02:17:35.949Z,90.8
2018-06-28T02:18:37.720Z,90.7
2018-06-28T02:19:39.434Z,90.8
2018-06-28T02:20:41.122Z,90.9
2018-06-28T02:21:42.847Z,91.2
2018-06-28T02:22:44.615Z,91.3
2018-06-28T02:23:46.413Z,91.1
2018-06-28T02:24:48.118Z,91.9
2018-06-28T02:25:49.847Z,91.7
2018-06-28T02:26:51.568Z,91.9
2018-06-28T02:27:53.360Z,92.0
2018-06-28T02:28:55.023Z,91.8
2018-06-28T02:29:56.694Z,92.0
2018-06-28T02:30:58.957Z,91.9
2018-06-28T02:32:00.619Z,92.1
2018-06-28T02:33:02.398Z,91.5
2018-06-28T02:34:04.590Z,91.9
2018-06-28T02:35:06.327Z,92.0
2018-06-28T02:36:08.473Z,92.5
2018-06-28T02:37:10.209Z,92.3
2018-06-28T02:38:11.927Z,92.4
2018-06-28T02:39:13.581Z,92.3
2018-06-28T02:40:15.275Z,92.4
2018-06-28T02:41:17.517Z,92.4
2018-06-28T02:42:19.179Z,91.9
2018-06-28T02:43:20.951Z,92.0
2018-06-28T02:44:22.663Z,92.0
2018-06-28T02:45:25.045Z,91.4
2018-06-28T02:46:26.667Z,91.6
2018-06-28T02:47:28.819Z,91.6
2018-06-28T02:48:30.533Z,91.3
2018-06-28T02:49:32.250Z,91.3
2018-06-28T02:50:33.972Z,91.3
2018-06-28T02:51:36.136Z,91.3
2018-06-28T02:52:37.775Z,91.8
2018-06-28T02:53:39.563Z,91.9
2018-06-28T02:54:41.270Z,91.3
2018-06-28T02:55:43.003Z,91.7
2018-06-28T02:56:45.171Z,91.8
2018-06-28T02:57:46.874Z,91.1
2018-06-28T02:58:48.574Z,91.2
2018-06-28T02:59:50.269Z,91.1
2018-06-28T03:00:51.951Z,91.3
2018-06-28T03:01:53.626Z,91.1
2018-06-28T03:02:55.412Z,91.1
2018-06-28T03:03:57.162Z,91.7
2018-06-28T03:04:58.916Z,91.7
2018-06-28T03:06:00.532Z,91.3
2018-06-28T03:07:02.302Z,91.6
2018-06-28T03:08:04.572Z,91.6
2018-06-28T03:09:06.290Z,91.3
2018-06-28T03:10:07.968Z,93.2
2018-06-28T03:11:09.624Z,94.1
2018-06-28T03:12:11.911Z,93.8
2018-06-28T03:13:14.017Z,93.6
2018-06-28T03:14:15.757Z,92.6
2018-06-28T03:15:17.900Z,92.1
2018-06-28T03:16:19.620Z,92.2
2018-06-28T03:17:21.322Z,91.7
2018-06-28T03:18:23.078Z,91.8
2018-06-28T03:19:25.273Z,91.2
2018-06-28T03:20:26.955Z,91.3
2018-06-28T03:21:28.715Z,91.3
2018-06-28T03:22:30.362Z,91.4
2018-06-28T03:23:32.072Z,91.3
2018-06-28T03:24:34.280Z,91.2
2018-06-28T03:25:36.005Z,91.3
2018-06-28T03:26:37.672Z,91.5
2018-06-28T03:27:39.451Z,91.6
2018-06-28T03:28:41.631Z,91.7
2018-06-28T03:29:43.350Z,91.9
2018-06-28T03:30:45.476Z,91.5
2018-06-28T03:31:47.140Z,91.5
2018-06-28T03:32:48.915Z,91.6
2018-06-28T03:33:50.668Z,91.7
2018-06-28T03:34:52.369Z,91.3
2018-06-28T03:35:54.525Z,91.7
2018-06-28T03:36:56.240Z,91.8
2018-06-28T03:37:58.569Z,91.9
2018-06-28T03:39:00.135Z,91.8
2018-06-28T03:40:01.923Z,91.9
2018-06-28T03:41:03.670Z,91.8
2018-06-28T03:42:05.414Z,91.6
2018-06-28T03:43:07.174Z,91.9
2018-06-28T03:44:09.338Z,91.5
2018-06-28T03:45:10.970Z,91.6
2018-06-28T03:46:12.739Z,91.3
2018-06-28T03:47:14.487Z,91.7
2018-06-28T03:48:16.177Z,91.8
2018-06-28T03:49:17.899Z,91.8
2018-06-28T03:50:19.558Z,91.7
2018-06-28T03:51:21.191Z,91.7
2018-06-28T03:52:23.355Z,91.7
2018-06-28T03:53:25.074Z,91.8
2018-06-28T03:54:26.848Z,91.3
2018-06-28T03:55:28.507Z,91.5
2018-06-28T03:56:30.230Z,91.4
2018-06-28T03:57:32.465Z,91.4
2018-06-28T03:58:34.101Z,91.3
2018-06-28T03:59:35.824Z,92.0
2018-06-28T04:00:37.686Z,91.9
2018-06-28T04:01:39.436Z,92.0
2018-06-28T04:02:41.707Z,92.0
2018-06-28T04:03:43.856Z,92.3
2018-06-28T04:04:46.036Z,91.7
2018-06-28T04:05:47.827Z,91.6
2018-06-28T04:06:49.635Z,91.2
2018-06-28T04:07:51.333Z,91.4
2018-06-28T04:08:53.083Z,91.6
2018-06-28T04:09:54.882Z,91.7
2018-06-28T04:10:56.571Z,91.4
2018-06-28T04:11:58.257Z,91.7
2018-06-28T04:13:00.041Z,91.7
2018-06-28T04:14:01.685Z,91.7
2018-06-28T04:15:03.345Z,91.4
2018-06-28T04:16:05.121Z,91.4
2018-06-28T04:17:06.849Z,91.7
2018-06-28T04:18:08.804Z,91.6
2018-06-28T04:19:10.455Z,91.7
2018-06-28T04:20:12.309Z,91.4
2018-06-28T04:21:14.039Z,92.0
2018-06-28T04:22:15.725Z,91.2
2018-06-28T04:23:17.304Z,91.3
2018-06-28T04:24:18.883Z,91.2
2018-06-28T04:25:20.559Z,91.4
2018-06-28T04:26:22.710Z,91.4
2018-06-28T04:27:24.828Z,91.4
2018-06-28T04:28:26.505Z,90.8
2018-06-28T04:29:28.176Z,90.3
2018-06-28T04:30:29.884Z,90.8
2018-06-28T04:31:31.536Z,90.5
2018-06-28T04:32:33.265Z,90.5
2018-06-28T04:33:35.091Z,90.7
2018-06-28T04:34:36.789Z,89.7
2018-06-28T04:35:38.776Z,90.1
2018-06-28T04:36:40.498Z,90.2
2018-06-28T04:37:42.576Z,90.3
2018-06-28T04:38:44.196Z,90.3
2018-06-28T04:39:45.821Z,90.0
2018-06-28T04:40:47.443Z,90.1
2018-06-28T04:41:49.441Z,90.1
2018-06-28T04:42:51.047Z,89.8
2018-06-28T04:43:52.709Z,89.4
2018-06-28T04:44:54.335Z,89.8
2018-06-28T04:45:56.013Z,89.2
2018-06-28T04:46:57.797Z,88.7
2018-06-28T04:47:59.509Z,88.0
2018-06-28T04:49:01.325Z,88.5
2018-06-28T04:50:03.078Z,87.4
2018-06-28T04:51:04.702Z,87.4
2018-06-28T04:52:06.749Z,87.2
2018-06-28T04:53:08.431Z,87.6
2018-06-28T04:54:10.126Z,87.4
2018-06-28T04:55:11.818Z,87.6
2018-06-28T04:56:13.879Z,87.0
2018-06-28T04:57:15.860Z,86.5
2018-06-28T04:58:17.490Z,85.0
2018-06-28T04:59:19.156Z,83.2
2018-06-28T05:00:20.818Z,82.0
2018-06-28T05:01:22.538Z,81.8
2018-06-28T05:02:24.084Z,81.5
2018-06-28T05:03:25.831Z,80.8
2018-06-28T05:04:27.507Z,80.0
2018-06-28T05:05:29.153Z,79.7
2018-06-28T05:06:30.900Z,79.6
2018-06-28T05:07:32.871Z,79.1
2018-06-28T05:08:34.671Z,77.7
2018-06-28T05:09:36.324Z,77.4
2018-06-28T05:10:38.011Z,75.9
2018-06-28T05:11:39.694Z,76.2
2018-06-28T05:12:41.396Z,76.5
2018-06-28T05:13:43.382Z,75.8
2018-06-28T05:14:45.179Z,75.0
2018-06-28T05:15:46.847Z,75.0
2018-06-28T05:16:48.887Z,74.0
2018-06-28T05:17:50.533Z,73.2
2018-06-28T05:18:52.196Z,73.7
2018-06-28T05:19:54.250Z,73.6
2018-06-28T05:20:55.945Z,74.0
2018-06-28T05:21:57.692Z,74.1
2018-06-28T05:22:59.325Z,73.1
2018-06-28T05:24:00.941Z,73.3
2018-06-28T05:25:02.530Z,73.4
2018-06-28T05:26:04.157Z,72.7
2018-06-28T05:27:05.637Z,71.9
2018-06-28T05:28:07.356Z,71.7
2018-06-28T05:29:09.177Z,72.4
2018-06-28T05:30:10.757Z,72.5
2018-06-28T05:31:12.365Z,72.9
2018-06-28T05:32:13.959Z,71.9
2018-06-28T05:33:15.578Z,71.2
2018-06-28T05:34:17.357Z,71.0
2018-06-28T05:35:19.146Z,69.9
2018-06-28T05:36:20.836Z,70.1
2018-06-28T05:37:22.356Z,68.9
2018-06-28T05:38:24.122Z,69.0
2018-06-28T05:39:26.041Z,69.8
2018-06-28T05:40:27.910Z,69.6
2018-06-28T05:41:29.866Z,69.0
2018-06-28T05:42:31.761Z,68.7
2018-06-28T05:43:33.598Z,68.6
2018-06-28T05:44:35.669Z,68.6
2018-06-28T05:45:37.483Z,66.8
2018-06-28T05:46:39.461Z,66.8
2018-06-28T05:47:41.132Z,66.9
2018-06-28T05:48:42.734Z,67.1
2018-06-28T05:49:44.645Z,67.1
2018-06-28T05:50:46.544Z,66.7
2018-06-28T05:51:48.237Z,65.2
2018-06-28T05:52:50.120Z,65.2
2018-06-28T05:53:51.875Z,64.0
2018-06-28T05:54:53.634Z,63.9
2018-06-28T05:55:55.336Z,64.1
2018-06-28T05:56:56.936Z,63.1
2018-06-28T05:57:58.616Z,64.3
2018-06-28T05:59:00.399Z,64.1
2018-06-28T06:00:02.240Z,64.7
2018-06-28T06:01:04.071Z,65.4
2018-06-28T06:02:06.025Z,65.3
2018-06-28T06:03:07.679Z,65.2
2018-06-28T06:04:09.559Z,65.4
2018-06-28T06:05:11.533Z,62.3
2018-06-28T06:06:13.485Z,62.8
2018-06-28T06:07:15.110Z,63.1
2018-06-28T06:08:16.693Z,63.1
2018-06-28T06:09:18.703Z,62.4
2018-06-28T06:10:20.611Z,62.3
2018-06-28T06:11:22.624Z,61.9
2018-06-28T06:12:24.334Z,61.8
2018-06-28T06:13:26.123Z,62.1
2018-06-28T06:14:28.031Z,62.6
2018-06-28T06:15:29.869Z,61.7
2018-06-28T06:16:31.651Z,61.5
2018-06-28T06:17:33.394Z,61.5
2018-06-28T06:18:35.158Z,61.6
2018-06-28T06:19:36.847Z,61.0
2018-06-28T06:20:38.465Z,61.5
2018-06-28T06:21:40.485Z,61.0
2018-06-28T06:22:42.012Z,61.4
2018-06-28T06:23:43.746Z,61.1
2018-06-28T06:24:45.452Z,59.9
2018-06-28T06:25:47.370Z,59.5
2018-06-28T06:26:49.131Z,59.3
2018-06-28T06:27:50.974Z,57.6
2018-06-28T06:28:52.653Z,57.7
2018-06-28T06:29:54.526Z,58.0
2018-06-28T06:30:56.256Z,56.8
2018-06-28T06:31:57.941Z,56.8
2018-06-28T06:32:59.594Z,57.0
2018-06-28T06:34:01.370Z,56.2
2018-06-28T06:35:03.291Z,55.6
2018-06-28T06:36:05.310Z,55.7
2018-06-28T06:37:07.213Z,56.0
2018-06-28T06:38:08.913Z,56.1
2018-06-28T06:39:10.714Z,54.9
2018-06-28T06:40:12.610Z,54.9
2018-06-28T06:41:14.502Z,54.6
2018-06-28T06:42:16.082Z,53.0
2018-06-28T06:43:17.982Z,52.8
2018-06-28T06:44:19.670Z,54.6
2018-06-28T06:45:21.539Z,53.8
2018-06-28T06:46:23.211Z,53.5
2018-06-28T06:47:24.984Z,53.5
2018-06-28T06:48:26.961Z,54.0
2018-06-28T06:49:28.555Z,53.6
2018-06-28T06:50:30.161Z,51.5
2018-06-28T06:51:31.923Z,52.4
2018-06-28T06:52:33.684Z,50.6
2018-06-28T06:53:35.321Z,50.6
2018-06-28T06:54:37.047Z,49.8
2018-06-28T06:55:38.905Z,50.1
2018-06-28T06:56:40.672Z,50.6
2018-06-28T06:57:42.353Z,50.6
2018-06-28T06:58:44.171Z,50.3
2018-06-28T06:59:45.791Z,50.8
2018-06-28T07:00:47.373Z,50.6
2018-06-28T07:01:48.997Z,49.9
2018-06-28T07:02:50.742Z,50.7
2018-06-28T07:03:52.365Z,49.8
2018-06-28T07:04:54.222Z,50.6
2018-06-28T07:05:56.084Z,49.2
2018-06-28T07:06:57.973Z,49.4
2018-06-28T07:07:59.710Z,50.8
2018-06-28T07:09:01.310Z,50.7
2018-06-28T07:10:02.910Z,49.3
2018-06-28T07:11:04.795Z,49.4
2018-06-28T07:12:06.521Z,48.5
2018-06-28T07:13:08.368Z,49.0
2018-06-28T07:14:10.290Z,48.0
2018-06-28T07:15:12.162Z,48.5
2018-06-28T07:16:14.071Z,47.4
2018-06-28T07:17:15.838Z,44.8
2018-06-28T07:18:17.611Z,46.1
2018-06-28T07:19:19.166Z,46.9
2018-06-28T07:20:21.128Z,46.4
2018-06-28T07:21:23.176Z,45.8
2018-06-28T07:22:25.007Z,46.3
2018-06-28T07:23:27.056Z,46.5
2018-06-28T07:24:28.697Z,45.6
2018-06-28T07:25:30.296Z,46.6
2018-06-28T07:26:32.346Z,46.2
2018-06-28T07:27:34.000Z,47.0
2018-06-28T07:28:35.877Z,46.4
2018-06-28T07:29:37.653Z,47.2
2018-06-28T07:30:39.347Z,48.4
2018-06-28T07:31:40.976Z,48.2
2018-06-28T07:32:42.815Z,48.4
2018-06-28T07:33:44.595Z,47.5
2018-06-28T07:34:46.218Z,47.1
2018-06-28T07:35:48.225Z,46.1
2018-06-28T07:36:50.051Z,46.0
2018-06-28T07:37:51.676Z,46.2
2018-06-28T07:38:53.649Z,46.2
2018-06-28T07:39:55.238Z,46.1
2018-06-28T07:40:56.953Z,44.5
2018-06-28T07:41:58.735Z,45.0
2018-06-28T07:43:00.568Z,44.8
2018-06-28T07:44:02.214Z,43.5
2018-06-28T07:45:04.024Z,42.6
2018-06-28T07:46:05.753Z,42.8
2018-06-28T07:47:07.674Z,42.2
2018-06-28T07:48:09.352Z,42.5
2018-06-28T07:49:11.250Z,41.9
2018-06-28T07:50:12.892Z,42.2
2018-06-28T07:51:14.669Z,41.7
2018-06-28T07:52:16.297Z,41.4
2018-06-28T07:53:17.919Z,41.1
2018-06-28T07:54:19.545Z,41.1
2018-06-28T07:55:21.180Z,41.7
2018-06-28T07:56:22.965Z,41.3
2018-06-28T07:57:24.936Z,40.8
2018-06-28T07:58:26.616Z,41.5
2018-06-28T07:59:28.254Z,41.1
2018-06-28T08:00:30.095Z,40.2
2018-06-28T08:01:32.018Z,39.4
2018-06-28T08:02:33.927Z,38.4
2018-06-28T08:03:35.662Z,39.3
2018-06-28T08:04:37.365Z,40.5
2018-06-28T08:05:39.199Z,39.3
2018-06-28T08:06:41.166Z,38.2
2018-06-28T08:07:43.014Z,40.3
2018-06-28T08:08:44.844Z,41.6
2018-06-28T08:09:46.501Z,42.4
2018-06-28T08:10:48.419Z,40.5
2018-06-28T08:11:50.101Z,40.4
2018-06-28T08:12:52.119Z,40.6
2018-06-28T08:13:53.817Z,39.4
2018-06-28T08:14:55.572Z,38.9
2018-06-28T08:15:57.479Z,40.9
2018-06-28T08:16:59.259Z,40.8
2018-06-28T08:18:00.993Z,39.2
2018-06-28T08:19:02.879Z,39.8
2018-06-28T08:20:04.546Z,38.3
2018-06-28T08:21:06.118Z,38.3
2018-06-28T08:22:08.121Z,38.2
2018-06-28T08:23:09.857Z,38.5
2018-06-28T08:24:11.538Z,37.7
2018-06-28T08:25:13.528Z,39.3
2018-06-28T08:26:15.252Z,38.6
2018-06-28T08:27:16.940Z,38.3
2018-06-28T08:28:18.685Z,37.1
2018-06-28T08:29:20.396Z,38.0
2018-06-28T08:30:22.050Z,37.5
2018-06-28T08:31:23.678Z,37.8
2018-06-28T08:32:25.255Z,38.1
2018-06-28T08:33:27.196Z,39.0
2018-06-28T08:34:28.994Z,37.8
2018-06-28T08:35:30.883Z,37.8
2018-06-28T08:36:32.522Z,37.9
2018-06-28T08:37:34.511Z,37.5
2018-06-28T08:38:36.121Z,37.4
2018-06-28T08:39:37.779Z,36.1
2018-06-28T08:40:39.424Z,36.3
2018-06-28T08:41:41.586Z,36.5
2018-06-28T08:42:43.406Z,36.9
2018-06-28T08:43:45.618Z,36.8
2018-06-28T08:44:47.284Z,36.8
2018-06-28T08:45:48.939Z,36.7
2018-06-28T08:46:50.522Z,36.2
2018-06-28T08:47:52.156Z,36.0
2018-06-28T08:48:53.995Z,35.0
2018-06-28T08:49:55.631Z,36.3
2018-06-28T08:50:57.349Z,37.1
2018-06-28T08:51:59.357Z,36.6
2018-06-28T08:53:01.010Z,37.1
2018-06-28T08:54:03.055Z,36.0
2018-06-28T08:55:04.925Z,35.8
2018-06-28T08:56:06.632Z,34.6
2018-06-28T08:57:08.343Z,34.2
2018-06-28T08:58:09.992Z,34.7
2018-06-28T08:59:11.694Z,33.0
2018-06-28T09:00:13.293Z,34.2
2018-06-28T09:01:15.235Z,34.4
2018-06-28T09:02:16.896Z,35.7
2018-06-28T09:03:18.524Z,34.9
2018-06-28T09:04:20.155Z,34.7
2018-06-28T09:05:21.732Z,35.2
2018-06-28T09:06:23.779Z,35.4
2018-06-28T09:07:25.412Z,34.6
2018-06-28T09:08:27.269Z,34.9
2018-06-28T09:09:29.110Z,35.6
2018-06-28T09:10:31.072Z,34.1
2018-06-28T09:11:32.676Z,34.8
2018-06-28T09:12:34.799Z,34.8
2018-06-28T09:13:36.683Z,33.8
2018-06-28T09:14:38.683Z,34.3
2018-06-28T09:15:40.761Z,34.2
2018-06-28T09:16:42.921Z,33.7
2018-06-28T09:17:44.641Z,33.4
2018-06-28T09:18:46.415Z,32.7
2018-06-28T09:19:48.531Z,31.6
2018-06-28T09:20:50.327Z,31.3
2018-06-28T09:21:52.052Z,31.0
2018-06-28T09:22:54.120Z,32.5
2018-06-28T09:23:56.008Z,31.5
2018-06-28T09:24:57.620Z,31.6
2018-06-28T09:26:00.121Z,33.1
2018-06-28T09:27:01.951Z,32.3
2018-06-28T09:28:03.565Z,32.2
2018-06-28T09:29:05.236Z,31.8
2018-06-28T09:30:07.188Z,31.5
2018-06-28T09:31:08.895Z,32.0
2018-06-28T09:32:10.663Z,32.4
2018-06-28T09:33:12.484Z,32.2
2018-06-28T09:34:14.377Z,31.7
2018-06-28T09:35:16.214Z,32.8
2018-06-28T09:36:17.907Z,31.9
2018-06-28T09:37:19.668Z,32.2
2018-06-28T09:38:21.547Z,33.4
2018-06-28T09:39:23.336Z,32.0
2018-06-28T09:40:25.427Z,31.0
2018-06-28T09:41:27.427Z,32.4
2018-06-28T09:42:29.368Z,32.4
2018-06-28T09:43:31.084Z,33.2
2018-06-28T09:44:32.792Z,33.0
2018-06-28T09:45:34.495Z,33.4
2018-06-28T09:46:36.231Z,33.4
2018-06-28T09:47:38.128Z,33.8
2018-06-28T09:48:39.855Z,33.7
2018-06-28T09:49:41.705Z,33.7
2018-06-28T09:50:43.693Z,34.2
2018-06-28T09:51:45.595Z,33.0
2018-06-28T09:52:47.385Z,34.2
2018-06-28T09:53:49.209Z,34.1
2018-06-28T09:54:50.895Z,34.0
2018-06-28T09:55:52.887Z,34.2
2018-06-28T09:56:54.885Z,32.9
2018-06-28T09:57:56.568Z,33.4
2018-06-28T09:58:58.578Z,31.7
2018-06-28T10:00:00.220Z,31.7
2018-06-28T10:01:01.866Z,32.0
2018-06-28T10:02:03.548Z,32.6
2018-06-28T10:03:05.217Z,31.9
2018-06-28T10:04:06.892Z,31.7
2018-06-28T10:05:09.039Z,31.1
2018-06-28T10:06:10.660Z,32.0
2018-06-28T10:07:12.460Z,31.9
2018-06-28T10:08:14.164Z,31.9
2018-06-28T10:09:16.323Z,32.3
2018-06-28T10:10:17.977Z,32.5
2018-06-28T10:11:19.642Z,33.5
2018-06-28T10:12:21.634Z,32.8
2018-06-28T10:13:23.421Z,31.9
2018-06-28T10:14:25.152Z,32.2
2018-06-28T10:15:26.865Z,30.7
2018-06-28T10:16:28.780Z,31.0
2018-06-28T10:17:30.441Z,31.2
2018-06-28T10:18:32.141Z,31.0
2018-06-28T10:19:33.843Z,31.6
2018-06-28T10:20:35.502Z,31.1
2018-06-28T10:21:37.438Z,30.5
2018-06-28T10:22:39.174Z,30.6
2018-06-28T10:23:41.079Z,31.5
2018-06-28T10:24:42.906Z,31.5
2018-06-28T10:25:44.986Z,31.6
2018-06-28T10:26:46.899Z,31.5
2018-06-28T10:27:48.945Z,33.6
2018-06-28T10:28:50.628Z,33.2
2018-06-28T10:29:52.676Z,32.2
2018-06-28T10:30:54.442Z,32.3
2018-06-28T10:31:56.089Z,32.1
2018-06-28T10:32:57.867Z,31.8
2018-06-28T10:33:59.695Z,31.5
2018-06-28T10:35:01.740Z,31.6
2018-06-28T10:36:03.412Z,31.1
2018-06-28T10:37:05.193Z,31.2
2018-06-28T10:38:06.884Z,31.7
2018-06-28T10:39:08.695Z,32.2
2018-06-28T10:40:10.689Z,31.1
2018-06-28T10:41:12.421Z,31.1
2018-06-28T10:42:14.115Z,29.3
2018-06-28T10:43:15.937Z,30.1
2018-06-28T10:44:17.589Z,31.1
2018-06-28T10:45:19.282Z,31.3
2018-06-28T10:46:21.021Z,31.1
2018-06-28T10:47:22.741Z,31.1
2018-06-28T10:48:24.510Z,31.6
2018-06-28T10:49:26.512Z,31.7
2018-06-28T10:50:28.191Z,30.7
2018-06-28T10:51:29.917Z,29.8
2018-06-28T10:52:31.616Z,29.1
2018-06-28T10:53:33.827Z,29.3
2018-06-28T10:54:35.764Z,29.6
2018-06-28T10:55:37.433Z,30.3
2018-06-28T10:56:39.360Z,30.3
2018-06-28T10:57:41.596Z,30.2
2018-06-28T10:58:43.727Z,29.2
2018-06-28T10:59:45.444Z,27.5
2018-06-28T11:00:47.234Z,29.0
2018-06-28T11:01:49.014Z,29.4
2018-06-28T11:02:51.139Z,30.0
2018-06-28T11:03:53.021Z,30.5
2018-06-28T11:04:55.079Z,29.5
2018-06-28T11:05:56.917Z,29.4
2018-06-28T11:06:58.606Z,30.0
2018-06-28T11:08:00.425Z,28.5
2018-06-28T11:09:02.249Z,28.0
2018-06-28T11:10:04.134Z,27.4
2018-06-28T11:11:05.951Z,28.2
2018-06-28T11:12:07.952Z,28.2
2018-06-28T11:13:10.698Z,26.3
2018-06-28T11:14:12.870Z,26.6
2018-06-28T11:15:14.695Z,25.7
2018-06-28T11:16:16.335Z,25.4
2018-06-28T11:17:18.054Z,26.2
2018-06-28T11:18:20.224Z,27.3
2018-06-28T11:19:21.909Z,27.2
2018-06-28T11:20:23.760Z,25.7
2018-06-28T11:21:25.474Z,26.2
2018-06-28T11:22:27.161Z,26.6
2018-06-28T11:23:28.849Z,26.9
2018-06-28T11:24:30.617Z,26.2
2018-06-28T11:25:32.350Z,26.5
2018-06-28T11:26:34.041Z,25.7
2018-06-28T11:27:35.866Z,25.8
2018-06-28T11:28:38.103Z,26.1
2018-06-28T11:29:41.010Z,27.2
2018-06-28T11:30:43.166Z,26.9
2018-06-28T11:31:45.011Z,26.3
2018-06-28T11:32:47.116Z,27.6
2018-06-28T11:33:48.863Z,26.5
2018-06-28T11:34:50.497Z,25.5
2018-06-28T11:35:52.194Z,26.4
2018-06-28T11:36:54.329Z,27.1
2018-06-28T11:37:56.283Z,26.2
2018-06-28T11:38:58.132Z,26.1
2018-06-28T11:40:00.075Z,26.3
2018-06-28T11:41:01.832Z,27.2
2018-06-28T11:42:03.629Z,26.6
2018-06-28T11:43:05.311Z,27.1
2018-06-28T11:44:07.015Z,27.8
2018-06-28T11:45:08.746Z,26.0
2018-06-28T11:46:10.793Z,27.3
2018-06-28T11:47:12.538Z,27.0
2018-06-28T11:48:14.243Z,27.4
2018-06-28T11:49:17.340Z,26.8
2018-06-28T11:50:19.258Z,26.8
2018-06-28T11:51:21.106Z,27.4
2018-06-28T11:52:23.269Z,26.4
2018-06-28T11:53:25.220Z,26.5
2018-06-28T11:54:27.471Z,27.1
2018-06-28T11:55:29.248Z,27.3
2018-06-28T11:56:31.109Z,28.8
2018-06-28T11:57:32.760Z,28.4
2018-06-28T11:58:34.474Z,28.0
2018-06-28T11:59:36.264Z,27.9
2018-06-28T12:00:38.049Z,27.1
2018-06-28T12:01:39.761Z,27.0
2018-06-28T12:02:41.431Z,26.8
2018-06-28T12:03:43.242Z,26.8
2018-06-28T12:04:45.068Z,26.1
2018-06-28T12:05:46.974Z,25.4
2018-06-28T12:06:48.726Z,26.3
2018-06-28T12:07:50.425Z,26.1
2018-06-28T12:08:52.203Z,26.4
2018-06-28T12:09:53.880Z,25.3
2018-06-28T12:10:55.629Z,26.8
2018-06-28T12:11:57.378Z,27.9
2018-06-28T12:12:59.940Z,29.2
2018-06-28T12:14:01.760Z,29.2
2018-06-28T12:15:03.517Z,29.0
2018-06-28T12:16:05.220Z,28.9
2018-06-28T12:17:07.240Z,27.7
2018-06-28T12:18:12.493Z,29.4
2018-06-28T12:19:14.173Z,29.3
2018-06-28T12:20:15.856Z,29.0
2018-06-28T12:21:18.053Z,28.8
2018-06-28T12:22:19.832Z,28.4
2018-06-28T12:23:21.407Z,28.6
2018-06-28T12:24:23.430Z,28.9
2018-06-28T12:25:25.129Z,29.5
2018-06-28T12:26:27.059Z,27.7
2018-06-28T12:27:28.845Z,27.6
2018-06-28T12:28:31.072Z,28.1
2018-06-28T12:29:32.848Z,29.3
2018-06-28T12:30:34.567Z,28.6
2018-06-28T12:31:36.309Z,28.2
2018-06-28T12:32:38.450Z,27.9
2018-06-28T12:33:40.112Z,28.5
2018-06-28T12:34:42.354Z,29.2
2018-06-28T12:35:44.180Z,27.5
2018-06-28T12:36:46.354Z,27.2
2018-06-28T12:37:48.081Z,27.1
2018-06-28T12:38:50.016Z,27.4
2018-06-28T12:39:51.825Z,25.0
2018-06-28T12:40:54.185Z,25.0
2018-06-28T12:41:55.810Z,24.0
2018-06-28T12:42:58.049Z,25.1
2018-06-28T12:43:59.903Z,24.8
2018-06-28T12:45:01.831Z,24.6
2018-06-28T12:46:03.668Z,24.1
2018-06-28T12:47:05.355Z,23.7
2018-06-28T12:48:07.385Z,24.3
2018-06-28T12:49:09.029Z,24.8
2018-06-28T12:50:10.851Z,24.7
2018-06-28T12:51:12.485Z,23.9
2018-06-28T12:52:14.264Z,24.8
2018-06-28T12:53:16.113Z,26.6
2018-06-28T12:54:17.831Z,25.7
2018-06-28T12:55:19.622Z,26.4
2018-06-28T12:56:21.423Z,27.6
2018-06-28T12:57:24.758Z,26.5
2018-06-28T12:58:26.278Z,26.1
2018-06-28T12:59:28.381Z,26.2
2018-06-28T13:00:30.139Z,27.2
2018-06-28T13:01:31.986Z,27.8
2018-06-28T13:02:34.350Z,28.7
2018-06-28T13:03:36.006Z,29.3
2018-06-28T13:04:37.865Z,29.1
2018-06-28T13:05:39.613Z,29.3
2018-06-28T13:06:41.794Z,29.2
2018-06-28T13:07:44.026Z,29.0
2018-06-28T13:08:45.880Z,29.4
2018-06-28T13:09:47.645Z,29.7
2018-06-28T13:10:49.378Z,30.4
2018-06-28T13:11:51.106Z,30.6
2018-06-28T13:12:52.766Z,29.8
2018-06-28T13:13:54.615Z,30.7
2018-06-28T13:14:56.277Z,30.6
2018-06-28T13:15:58.384Z,30.0
2018-06-28T13:17:00.430Z,29.3
2018-06-28T13:18:02.561Z,28.6
2018-06-28T13:19:04.271Z,28.0
2018-06-28T13:20:07.306Z,25.8
2018-06-28T13:21:08.856Z,26.5
2018-06-28T13:22:11.018Z,26.9
2018-06-28T13:23:13.120Z,27.7
2018-06-28T13:24:14.875Z,27.9
2018-06-28T13:25:17.773Z,28.4
2018-06-28T13:26:19.457Z,28.9
2018-06-28T13:27:21.319Z,27.4
2018-06-28T13:28:23.527Z,27.8
2018-06-28T13:29:25.204Z,26.3
2018-06-28T13:30:26.974Z,26.2
2018-06-28T13:31:28.945Z,26.6
2018-06-28T13:32:31.058Z,26.9
2018-06-28T13:33:33.128Z,26.7
2018-06-28T13:34:35.292Z,26.4
2018-06-28T13:35:36.941Z,26.3
2018-06-28T13:36:38.848Z,26.2
2018-06-28T13:37:40.511Z,25.8
2018-06-28T13:38:42.256Z,25.9
2018-06-28T13:39:44.054Z,25.8
2018-06-28T13:40:45.965Z,24.2
2018-06-28T13:41:47.753Z,24.9
2018-06-28T13:42:49.571Z,25.6